createdAt,value
2022-12-01T00:01:37.645Z,91032.47
2022-12-01T00:04:03.996Z,91031.25
2022-12-01T00:06:30.260Z,91032.16
2022-12-01T00:09:19.404Z,91034.94
2022-12-01T00:11:46.316Z,91029.56
2022-12-01T00:14:12.656Z,91032.72
2022-12-01T00:16:40.399Z,91031.50
2022-12-01T00:19:06.874Z,91027.75
2022-12-01T00:21:33.149Z,91025.13
2022-12-01T00:23:59.545Z,91029.69
2022-12-01T00:26:26.060Z,91027.44
2022-12-01T00:28:52.907Z,91023.97
2022-12-01T00:31:19.473Z,91030.41
2022-12-01T00:33:45.802Z,91029.19
2022-12-01T00:36:12.081Z,91028.88
2022-12-01T00:38:38.443Z,91033.31
2022-12-01T00:41:04.787Z,91025.91
2022-12-01T00:43:31.099Z,91035.28
2022-12-01T00:45:57.491Z,91036.34
2022-12-01T00:48:23.795Z,91035.34
2022-12-01T00:50:50.370Z,91035.50
2022-12-01T00:53:16.643Z,91032.72
2022-12-01T00:55:42.918Z,91038.09
2022-12-01T00:58:09.376Z,91037.75
2022-12-01T01:00:38.593Z,91035.19
2022-12-01T01:03:05.797Z,91037.38
2022-12-01T01:05:35.192Z,91043.53
2022-12-01T01:08:01.537Z,91042.00
2022-12-01T01:10:27.964Z,91039.13
2022-12-01T01:12:54.255Z,91044.34
2022-12-01T01:15:20.516Z,91039.72
2022-12-01T01:17:46.836Z,91036.22
2022-12-01T01:20:13.324Z,91049.88
2022-12-01T01:22:39.591Z,91041.59
2022-12-01T01:25:06.078Z,91047.94
2022-12-01T01:27:33.768Z,91041.88
2022-12-01T01:30:00.049Z,91050.13
2022-12-01T01:32:26.340Z,91046.59
2022-12-01T01:34:52.623Z,91045.75
2022-12-01T01:37:18.901Z,91048.63
2022-12-01T01:39:45.584Z,91046.69
2022-12-01T01:42:15.040Z,91043.34
2022-12-01T01:44:49.045Z,91048.13
2022-12-01T01:47:16.149Z,91045.31
2022-12-01T01:49:42.436Z,91044.22
2022-12-01T01:52:08.693Z,91051.09
2022-12-01T01:54:35.995Z,91047.50
2022-12-01T01:57:02.261Z,91043.88
2022-12-01T01:59:29.785Z,91051.41
2022-12-01T02:02:02.731Z,91045.50
2022-12-01T02:04:29.057Z,91040.25
2022-12-01T02:06:55.320Z,91046.25
2022-12-01T02:09:21.584Z,91043.22
2022-12-01T02:12:03.343Z,91045.28
2022-12-01T02:14:33.756Z,91044.59
2022-12-01T02:17:12.372Z,91044.81
2022-12-01T02:19:42.021Z,91040.47
2022-12-01T02:22:19.095Z,91038.09
2022-12-01T02:24:50.186Z,91042.09
2022-12-01T02:27:25.654Z,91035.03
2022-12-01T02:29:51.889Z,91037.59
2022-12-01T02:32:24.829Z,91042.78
2022-12-01T02:35:06.414Z,91047.97
2022-12-01T02:37:36.852Z,91040.94
2022-12-01T02:40:05.950Z,91040.69
2022-12-01T02:42:51.916Z,91041.75
2022-12-01T02:45:20.977Z,91032.28
2022-12-01T02:47:47.260Z,91033.59
2022-12-01T02:50:13.529Z,91038.06
2022-12-01T02:52:40.137Z,91036.59
2022-12-01T02:55:06.494Z,91030.53
2022-12-01T02:57:32.937Z,91034.03
2022-12-01T02:59:59.316Z,91036.34
2022-12-01T03:02:25.716Z,91029.94
2022-12-01T03:04:56.935Z,91027.00
2022-12-01T03:07:42.366Z,91034.84
2022-12-01T03:10:12.838Z,91034.13
2022-12-01T03:12:46.801Z,91039.66
2022-12-01T03:15:31.010Z,91029.63
2022-12-01T03:17:59.598Z,91025.13
2022-12-01T03:20:32.801Z,91028.28
2022-12-01T03:23:00.397Z,91031.59
2022-12-01T03:25:26.658Z,91033.66
2022-12-01T03:28:20.249Z,91032.66
2022-12-01T03:30:42.633Z,91025.25
2022-12-01T03:33:09.827Z,91032.41
2022-12-01T03:35:41.761Z,91032.03
2022-12-01T03:38:28.308Z,91028.00
2022-12-01T03:40:58.233Z,91032.09
2022-12-01T03:43:29.067Z,91027.25
2022-12-01T03:45:56.782Z,91029.94
2022-12-01T03:48:24.072Z,91037.41
2022-12-01T03:51:14.017Z,91029.78
2022-12-01T03:54:00.597Z,91032.66
2022-12-01T03:56:27.639Z,91037.84
2022-12-01T03:58:54.788Z,91040.34
2022-12-01T04:01:22.274Z,91038.06
2022-12-01T04:03:48.615Z,91037.41
2022-12-01T04:06:14.901Z,91032.81
2022-12-01T04:08:41.169Z,91031.22
2022-12-01T04:11:32.411Z,91036.72
2022-12-01T04:13:59.013Z,91033.56
2022-12-01T04:16:25.317Z,91030.22
2022-12-01T04:18:51.647Z,91034.59
2022-12-01T04:21:17.925Z,91037.56
2022-12-01T04:24:02.534Z,91030.31
2022-12-01T04:26:29.373Z,91028.25
2022-12-01T04:28:55.677Z,91034.25
2022-12-01T04:31:22.112Z,91036.66
2022-12-01T04:33:48.469Z,91027.19
2022-12-01T04:36:14.800Z,91030.97
2022-12-01T04:38:41.093Z,91030.53
2022-12-01T04:41:10.599Z,91034.78
2022-12-01T04:43:36.858Z,91037.75
2022-12-01T04:46:03.495Z,91026.88
2022-12-01T04:48:29.795Z,91035.25
2022-12-01T04:50:56.067Z,91028.97
2022-12-01T04:53:22.393Z,91033.28
2022-12-01T04:55:48.682Z,91033.00
2022-12-01T04:58:14.949Z,91030.94
2022-12-01T05:00:41.297Z,91026.66
2022-12-01T05:03:13.530Z,91038.59
2022-12-01T05:05:41.275Z,91037.22
2022-12-01T05:08:07.668Z,91040.41
2022-12-01T05:10:37.080Z,91039.81
2022-12-01T05:13:06.334Z,91041.47
2022-12-01T05:15:32.632Z,91043.88
2022-12-01T05:17:59.024Z,91041.09
2022-12-01T05:20:44.032Z,91042.44
2022-12-01T05:23:15.248Z,91042.72
2022-12-01T05:25:43.169Z,91045.22
2022-12-01T05:28:09.520Z,91051.53
2022-12-01T05:30:35.955Z,91052.09
2022-12-01T05:33:02.309Z,91052.94
2022-12-01T05:35:28.635Z,91053.22
2022-12-01T05:37:55.446Z,91055.59
2022-12-01T05:40:21.720Z,91057.22
2022-12-01T05:42:48.001Z,91069.47
2022-12-01T05:45:14.381Z,91054.50
2022-12-01T05:47:40.660Z,91058.66
2022-12-01T05:50:07.358Z,91064.09
2022-12-01T05:52:34.514Z,91063.53
2022-12-01T05:55:01.240Z,91060.53
2022-12-01T05:57:27.552Z,91061.28
2022-12-01T05:59:53.832Z,91062.44
2022-12-01T06:02:20.165Z,91071.84
2022-12-01T06:04:46.688Z,91068.84
2022-12-01T06:07:12.972Z,91068.13
2022-12-01T06:09:39.234Z,91071.47
2022-12-01T06:12:05.590Z,91069.56
2022-12-01T06:14:31.843Z,91076.91
2022-12-01T06:16:58.125Z,91076.97
2022-12-01T06:19:24.512Z,91074.59
2022-12-01T06:21:50.816Z,91073.38
2022-12-01T06:24:17.120Z,91080.94
2022-12-01T06:26:43.413Z,91091.16
2022-12-01T06:29:10.594Z,91091.38
2022-12-01T06:31:36.966Z,91072.59
2022-12-01T06:34:03.305Z,91094.38
2022-12-01T06:36:29.603Z,91089.78
2022-12-01T06:38:55.884Z,91087.59
2022-12-01T06:41:22.167Z,91094.06
2022-12-01T06:43:48.460Z,91096.63
2022-12-01T06:46:14.773Z,91104.00
2022-12-01T06:48:41.055Z,91094.50
2022-12-01T06:51:07.348Z,91094.69
2022-12-01T06:53:33.641Z,91105.28
2022-12-01T06:56:03.332Z,91105.13
2022-12-01T06:58:29.970Z,91097.84
2022-12-01T07:00:57.356Z,91111.13
2022-12-01T07:03:23.777Z,91110.50
2022-12-01T07:05:59.773Z,91113.91
2022-12-01T07:08:26.641Z,91112.75
2022-12-01T07:11:12.565Z,91108.34
2022-12-01T07:13:39.204Z,91115.34
2022-12-01T07:16:05.864Z,91113.13
2022-12-01T07:18:32.309Z,91112.66
2022-12-01T07:21:08.326Z,91114.56
2022-12-01T07:23:34.725Z,91115.84
2022-12-01T07:26:21.513Z,91125.63
2022-12-01T07:28:47.834Z,91128.09
2022-12-01T07:31:15.087Z,91125.41
2022-12-01T07:33:41.483Z,91124.63
2022-12-01T07:36:08.135Z,91120.88
2022-12-01T07:38:34.419Z,91133.09
2022-12-01T07:41:03.449Z,91137.72
2022-12-01T07:43:30.835Z,91134.56
2022-12-01T07:45:57.196Z,91138.44
2022-12-01T07:48:23.510Z,91146.56
2022-12-01T07:50:49.779Z,91140.38
2022-12-01T07:53:16.080Z,91143.63
2022-12-01T07:55:47.577Z,91145.47
2022-12-01T07:58:13.845Z,91147.28
2022-12-01T08:00:40.119Z,91150.97
2022-12-01T08:03:06.456Z,91151.53
2022-12-01T08:05:32.825Z,91151.75
2022-12-01T08:07:59.241Z,91152.13
2022-12-01T08:10:25.650Z,91147.66
2022-12-01T08:12:51.945Z,91148.50
2022-12-01T08:15:18.199Z,91149.44
2022-12-01T08:17:44.480Z,91148.41
2022-12-01T08:20:12.086Z,91151.03
2022-12-01T08:22:38.357Z,91145.97
2022-12-01T08:25:04.787Z,91151.66
2022-12-01T08:27:31.061Z,91147.81
2022-12-01T08:29:57.337Z,91146.47
2022-12-01T08:32:23.712Z,91137.88
2022-12-01T08:34:53.540Z,91146.44
2022-12-01T08:37:20.243Z,91142.63
2022-12-01T08:39:46.568Z,91153.50
2022-12-01T08:42:13.111Z,91150.63
2022-12-01T08:44:39.443Z,91152.38
2022-12-01T08:47:05.777Z,91149.97
2022-12-01T08:49:32.075Z,91150.25
2022-12-01T08:51:58.355Z,91146.00
2022-12-01T08:54:24.636Z,91153.06
2022-12-01T08:56:50.964Z,91141.63
2022-12-01T08:59:17.224Z,91139.91
2022-12-01T09:01:52.553Z,91144.19
2022-12-01T09:04:19.479Z,91141.47
2022-12-01T09:06:46.155Z,91140.38
2022-12-01T09:09:13.268Z,91137.19
2022-12-01T09:11:39.920Z,91144.44
2022-12-01T09:14:06.274Z,91150.63
2022-12-01T09:16:32.574Z,91150.63
2022-12-01T09:18:58.910Z,91151.19
2022-12-01T09:21:26.130Z,91156.78
2022-12-01T09:23:52.399Z,91159.66
2022-12-01T09:26:19.455Z,91155.63
2022-12-01T09:28:45.977Z,91151.16
2022-12-01T09:31:12.498Z,91146.47
2022-12-01T09:33:38.818Z,91145.19
2022-12-01T09:36:05.568Z,91152.09
2022-12-01T09:38:32.286Z,91151.00
2022-12-01T09:40:59.514Z,91145.84
2022-12-01T09:43:26.919Z,91150.91
2022-12-01T09:46:03.879Z,91152.69
2022-12-01T09:48:34.440Z,91152.47
2022-12-01T09:51:00.717Z,91148.50
2022-12-01T09:53:28.829Z,91146.16
2022-12-01T09:56:00.644Z,91147.34
2022-12-01T09:58:31.240Z,91142.19
2022-12-01T10:00:57.547Z,91144.97
2022-12-01T10:03:23.873Z,91148.78
2022-12-01T10:06:26.123Z,91139.13
2022-12-01T10:08:51.115Z,91132.13
2022-12-01T10:11:24.811Z,91137.09
2022-12-01T10:13:51.092Z,91131.13
2022-12-01T10:16:18.691Z,91129.84
2022-12-01T10:18:48.496Z,91123.75
2022-12-01T10:21:20.989Z,91123.88
2022-12-01T10:23:50.873Z,91114.41
2022-12-01T10:26:20.231Z,91115.88
2022-12-01T10:28:52.716Z,91110.78
2022-12-01T10:31:20.195Z,91110.94
2022-12-01T10:33:54.613Z,91117.22
2022-12-01T10:36:21.181Z,91107.31
2022-12-01T10:38:47.500Z,91107.41
2022-12-01T10:41:14.148Z,91115.81
2022-12-01T10:44:00.735Z,91101.34
2022-12-01T10:46:33.843Z,91101.09
2022-12-01T10:49:00.609Z,91097.03
2022-12-01T10:51:27.224Z,91096.03
2022-12-01T10:53:59.794Z,91089.16
2022-12-01T10:56:26.092Z,91085.25
2022-12-01T10:58:53.154Z,91084.75
2022-12-01T11:01:23.741Z,91082.38
2022-12-01T11:03:51.244Z,91087.31
2022-12-01T11:06:20.773Z,91071.34
2022-12-01T11:08:50.556Z,91078.06
2022-12-01T11:11:23.013Z,91084.38
2022-12-01T11:13:49.303Z,91085.44
2022-12-01T11:16:33.228Z,91070.56
2022-12-01T11:19:09.886Z,91078.97
2022-12-01T11:21:36.235Z,91068.25
2022-12-01T11:24:02.507Z,91067.91
2022-12-01T11:26:31.788Z,91064.78
2022-12-01T11:29:04.969Z,91059.34
2022-12-01T11:31:37.632Z,91061.25
2022-12-01T11:34:04.057Z,91066.53
2022-12-01T11:36:33.355Z,91059.34
2022-12-01T11:39:00.321Z,91060.94
2022-12-01T11:41:30.857Z,91054.59
2022-12-01T11:44:01.910Z,91055.00
2022-12-01T11:46:30.804Z,91054.66
2022-12-01T11:48:57.633Z,91057.44
2022-12-01T11:51:23.870Z,91054.22
2022-12-01T11:53:50.142Z,91039.81
2022-12-01T11:56:28.582Z,91044.47
2022-12-01T11:58:57.227Z,91038.22
2022-12-01T12:01:23.464Z,91043.78
2022-12-01T12:03:53.192Z,91039.19
2022-12-01T12:09:19.010Z,91034.22
2022-12-01T12:11:49.885Z,91030.09
2022-12-01T12:14:19.285Z,91036.69
2022-12-01T12:16:48.466Z,91028.56
2022-12-01T12:19:25.387Z,91027.16
2022-12-01T12:22:09.777Z,91024.44
2022-12-01T12:24:39.205Z,91023.34
2022-12-01T12:27:24.256Z,91027.63
2022-12-01T12:30:09.464Z,91033.53
2022-12-01T12:32:46.445Z,91025.94
2022-12-01T12:35:31.465Z,91028.66
2022-12-01T12:38:00.848Z,91023.28
2022-12-01T12:40:27.463Z,91027.44
2022-12-01T12:42:53.744Z,91014.72
2022-12-01T12:45:25.922Z,91025.44
2022-12-01T12:48:11.293Z,91016.31
2022-12-01T12:51:00.569Z,91016.25
2022-12-01T12:53:38.719Z,91018.09
2022-12-01T12:56:05.600Z,91006.84
2022-12-01T12:58:34.415Z,91004.38
2022-12-01T13:01:01.694Z,91016.16
2022-12-01T13:03:35.335Z,91008.31
2022-12-01T13:06:01.557Z,91011.81
2022-12-01T13:08:31.180Z,91011.94
2022-12-01T13:10:58.948Z,91004.22
2022-12-01T13:13:31.540Z,91008.84
2022-12-01T13:15:58.119Z,91004.84
2022-12-01T13:18:24.432Z,91002.72
2022-12-01T13:20:50.703Z,91001.38
2022-12-01T13:23:17.840Z,90999.97
2022-12-01T13:25:44.161Z,90993.09
2022-12-01T13:28:15.147Z,90996.94
2022-12-01T13:30:41.426Z,90998.31
2022-12-01T13:33:07.725Z,90993.19
2022-12-01T13:35:35.073Z,90996.50
2022-12-01T13:38:13.717Z,90993.75
2022-12-01T13:40:40.024Z,90990.66
2022-12-01T13:43:10.668Z,90991.94
2022-12-01T13:45:37.396Z,90987.09
2022-12-01T13:48:04.271Z,90983.16
2022-12-01T13:50:43.550Z,90990.72
2022-12-01T13:53:11.032Z,90990.78
2022-12-01T13:55:52.318Z,90986.59
2022-12-01T13:58:22.564Z,90982.50
2022-12-01T14:00:50.809Z,90987.13
2022-12-01T14:03:17.285Z,90987.34
2022-12-01T14:05:53.090Z,90981.25
2022-12-01T14:08:26.308Z,90986.72
2022-12-01T14:10:52.618Z,90992.00
2022-12-01T14:13:19.237Z,90983.41
2022-12-01T14:15:45.709Z,90991.59
2022-12-01T14:18:18.004Z,90988.94
2022-12-01T14:20:45.417Z,90990.38
2022-12-01T14:23:13.099Z,90990.94
2022-12-01T14:25:39.406Z,90993.25
2022-12-01T14:28:12.158Z,90993.25
2022-12-01T14:30:38.400Z,90995.69
2022-12-01T14:33:23.549Z,90992.00
2022-12-01T14:35:49.841Z,90995.28
2022-12-01T14:38:16.125Z,90995.56
2022-12-01T14:40:42.404Z,90992.09
2022-12-01T14:43:27.818Z,90994.69
2022-12-01T14:45:56.282Z,90996.00
2022-12-01T14:48:24.764Z,90992.25
2022-12-01T14:50:53.186Z,90996.06
2022-12-01T14:53:26.944Z,91003.31
2022-12-01T14:55:57.760Z,90997.28
2022-12-01T14:58:25.594Z,90996.28
2022-12-01T15:00:56.516Z,90984.94
2022-12-01T15:03:26.416Z,90999.28
2022-12-01T15:05:55.278Z,91001.03
2022-12-01T15:08:45.814Z,90997.88
2022-12-01T15:11:21.973Z,91002.03
2022-12-01T15:13:49.347Z,90994.03
2022-12-01T15:16:16.625Z,90994.19
2022-12-01T15:18:43.120Z,91005.75
2022-12-01T15:21:19.783Z,90997.06
2022-12-01T15:23:52.979Z,91000.38
2022-12-01T15:26:19.400Z,91005.22
2022-12-01T15:28:45.660Z,91006.75
2022-12-01T15:31:12.374Z,91013.47
2022-12-01T15:33:41.128Z,91016.75
2022-12-01T15:36:07.635Z,91012.56
2022-12-01T15:38:37.014Z,91012.03
2022-12-01T15:41:28.488Z,91016.25
2022-12-01T15:43:57.060Z,91021.25
2022-12-01T15:46:26.979Z,91010.47
2022-12-01T15:49:06.179Z,91017.19
2022-12-01T15:51:32.452Z,91010.34
2022-12-01T15:53:59.153Z,91009.19
2022-12-01T15:56:32.795Z,91016.06
2022-12-01T15:59:02.785Z,91023.09
2022-12-01T16:01:29.435Z,91020.78
2022-12-01T16:03:56.566Z,91023.53
2022-12-01T16:06:28.740Z,91012.41
2022-12-01T16:09:02.231Z,91019.59
2022-12-01T16:11:28.609Z,91019.06
2022-12-01T16:13:58.078Z,91019.81
2022-12-01T16:16:40.479Z,91023.53
2022-12-01T16:19:09.892Z,91023.84
2022-12-01T16:21:43.738Z,91017.06
2022-12-01T16:24:13.099Z,91020.47
2022-12-01T16:26:45.537Z,91025.81
2022-12-01T16:29:19.445Z,91034.28
2022-12-01T16:32:12.746Z,91030.22
2022-12-01T16:34:57.400Z,91035.91
2022-12-01T16:37:18.281Z,91032.16
2022-12-01T16:39:44.575Z,91033.00
2022-12-01T16:42:11.715Z,91029.16
2022-12-01T16:44:38.042Z,91036.28
2022-12-01T16:47:09.322Z,91034.91
2022-12-01T16:49:35.594Z,91035.88
2022-12-01T16:52:16.015Z,91034.63
2022-12-01T16:54:48.579Z,91041.00
2022-12-01T16:57:16.953Z,91044.66
2022-12-01T16:59:43.688Z,91041.75
2022-12-01T17:02:10.368Z,91049.75
2022-12-01T17:04:36.699Z,91045.47
2022-12-01T17:07:03.264Z,91048.84
2022-12-01T17:09:29.533Z,91044.78
2022-12-01T17:11:59.311Z,91040.22
2022-12-01T17:14:25.668Z,91052.31
2022-12-01T17:16:51.953Z,91049.59
2022-12-01T17:19:18.280Z,91049.38
2022-12-01T17:21:44.559Z,91055.38
2022-12-01T17:24:10.881Z,91057.06
2022-12-01T17:26:37.185Z,91057.63
2022-12-01T17:29:03.486Z,91048.69
2022-12-01T17:31:29.878Z,91057.84
2022-12-01T17:33:56.201Z,91056.28
2022-12-01T17:36:22.507Z,91064.00
2022-12-01T17:38:49.588Z,91061.31
2022-12-01T17:41:18.136Z,91063.09
2022-12-01T17:43:44.523Z,91061.69
2022-12-01T17:46:11.350Z,91074.66
2022-12-01T17:48:38.187Z,91068.72
2022-12-01T17:51:04.548Z,91068.84
2022-12-01T17:53:30.843Z,91073.38
2022-12-01T17:55:57.129Z,91074.78
2022-12-01T17:58:23.472Z,91072.94
2022-12-01T18:00:50.422Z,91075.13
2022-12-01T18:03:16.780Z,91071.19
2022-12-01T18:05:43.083Z,91076.13
2022-12-01T18:08:09.509Z,91067.16
2022-12-01T18:10:35.965Z,91071.78
2022-12-01T18:13:02.867Z,91076.59
2022-12-01T18:15:33.248Z,91077.84
2022-12-01T18:18:01.060Z,91087.72
2022-12-01T18:20:27.352Z,91081.25
2022-12-01T18:22:53.632Z,91082.09
2022-12-01T18:25:19.909Z,91084.97
2022-12-01T18:27:46.203Z,91088.34
2022-12-01T18:30:12.857Z,91088.19
2022-12-01T18:32:39.149Z,91092.91
2022-12-01T18:35:05.599Z,91091.81
2022-12-01T18:37:31.963Z,91085.72
2022-12-01T18:39:58.243Z,91079.56
2022-12-01T18:42:24.591Z,91084.25
2022-12-01T18:44:51.324Z,91093.09
2022-12-01T18:47:17.800Z,91086.13
2022-12-01T18:49:44.119Z,91083.50
2022-12-01T18:52:10.445Z,91088.09
2022-12-01T18:54:36.759Z,91085.66
2022-12-01T18:57:03.067Z,91093.88
2022-12-01T18:59:29.401Z,91093.53
2022-12-01T19:01:55.816Z,91099.09
2022-12-01T19:04:22.223Z,91090.34
2022-12-01T19:06:48.503Z,91089.94
2022-12-01T19:09:15.591Z,91087.59
2022-12-01T19:11:41.956Z,91087.34
2022-12-01T19:14:09.472Z,91088.84
2022-12-01T19:16:35.811Z,91094.59
2022-12-01T19:19:02.144Z,91092.22
2022-12-01T19:21:28.416Z,91092.78
2022-12-01T19:23:54.695Z,91094.59
2022-12-01T19:26:21.770Z,91089.41
2022-12-01T19:28:48.259Z,91096.41
2022-12-01T19:31:15.472Z,91088.22
2022-12-01T19:33:41.855Z,91089.91
2022-12-01T19:36:12.087Z,91090.81
2022-12-01T19:38:38.521Z,91092.69
2022-12-01T19:41:05.094Z,91087.84
2022-12-01T19:43:32.946Z,91094.88
2022-12-01T19:46:03.731Z,91086.13
2022-12-01T19:48:30.048Z,91088.81
2022-12-01T19:50:56.321Z,91090.88
2022-12-01T19:53:22.629Z,91089.47
2022-12-01T19:55:48.907Z,91090.66
2022-12-01T19:58:15.186Z,91090.94
2022-12-01T20:00:41.490Z,91086.19
2022-12-01T20:03:07.785Z,91091.69
2022-12-01T20:05:34.049Z,91094.06
2022-12-01T20:08:01.300Z,91100.06
2022-12-01T20:10:27.700Z,91093.78
2022-12-01T20:12:54.084Z,91100.34
2022-12-01T20:15:20.393Z,91100.91
2022-12-01T20:17:46.677Z,91098.84
2022-12-01T20:20:13.095Z,91106.03
2022-12-01T20:22:39.528Z,91110.31
2022-12-01T20:25:06.498Z,91103.25
2022-12-01T20:27:32.773Z,91104.63
2022-12-01T20:29:59.030Z,91101.41
2022-12-01T20:32:25.345Z,91107.00
2022-12-01T20:34:51.781Z,91109.22
2022-12-01T20:37:18.233Z,91102.94
2022-12-01T20:39:44.599Z,91104.41
2022-12-01T20:42:11.267Z,91096.44
2022-12-01T20:44:37.610Z,91100.47
2022-12-01T20:47:03.926Z,91101.91
2022-12-01T20:49:30.176Z,91105.59
2022-12-01T20:51:56.452Z,91100.84
2022-12-01T20:54:30.539Z,91107.13
2022-12-01T20:56:57.111Z,91097.63
2022-12-01T20:59:23.410Z,91104.59
2022-12-01T21:01:49.684Z,91103.72
2022-12-01T21:04:16.044Z,91097.56
2022-12-01T21:06:42.396Z,91103.78
2022-12-01T21:09:08.756Z,91102.00
2022-12-01T21:11:55.121Z,91095.53
2022-12-01T21:14:24.165Z,91099.03
2022-12-01T21:16:50.471Z,91085.28
2022-12-01T21:19:19.067Z,91090.69
2022-12-01T21:21:45.376Z,91093.44
2022-12-01T21:24:16.790Z,91088.06
2022-12-01T21:26:47.025Z,91093.38
2022-12-01T21:29:24.788Z,91089.34
2022-12-01T21:31:51.828Z,91089.88
2022-12-01T21:34:24.756Z,91090.16
2022-12-01T21:36:52.641Z,91089.53
2022-12-01T21:39:20.720Z,91090.53
2022-12-01T21:41:50.521Z,91080.88
2022-12-01T21:44:20.493Z,91088.97
2022-12-01T21:46:47.706Z,91091.88
2022-12-01T21:49:16.893Z,91088.06
2022-12-01T21:51:43.183Z,91092.31
2022-12-01T21:54:16.392Z,91093.97
2022-12-01T21:56:42.652Z,91090.56
2022-12-01T21:59:29.160Z,91092.16
2022-12-01T22:01:56.071Z,91090.28
2022-12-01T22:04:23.278Z,91084.91
2022-12-01T22:06:51.291Z,91084.53
2022-12-01T22:09:28.112Z,91080.44
2022-12-01T22:11:55.074Z,91077.81
2022-12-01T22:14:27.044Z,91081.91
2022-12-01T22:16:53.252Z,91082.28
2022-12-01T22:19:37.938Z,91086.19
2022-12-01T22:22:18.209Z,91079.47
2022-12-01T22:24:48.513Z,91082.66
2022-12-01T22:27:33.627Z,91085.97
2022-12-01T22:30:11.123Z,91078.56
2022-12-01T22:32:53.087Z,91078.41
2022-12-01T22:35:42.917Z,91084.00
2022-12-01T22:38:12.682Z,91087.22
2022-12-01T22:40:38.974Z,91082.66
2022-12-01T22:43:14.506Z,91095.16
2022-12-01T22:45:40.963Z,91082.53
2022-12-01T22:48:13.577Z,91088.28
2022-12-01T22:50:39.844Z,91082.75
2022-12-01T22:53:09.292Z,91084.28
2022-12-01T22:55:35.568Z,91094.88
2022-12-01T22:58:05.581Z,91093.59
2022-12-01T23:00:32.228Z,91090.44
2022-12-01T23:02:58.563Z,91087.88
2022-12-01T23:05:26.193Z,91088.84
2022-12-01T23:07:53.034Z,91090.94
2022-12-01T23:10:19.502Z,91091.38
2022-12-01T23:12:46.557Z,91093.81
2022-12-01T23:15:22.079Z,91087.69
2022-12-01T23:17:48.726Z,91084.53
2022-12-01T23:20:20.739Z,91085.69
2022-12-01T23:22:47.323Z,91082.53
2022-12-01T23:25:14.514Z,91074.00
2022-12-01T23:27:40.869Z,91080.56
2022-12-01T23:30:07.376Z,91076.66
2022-12-01T23:32:33.660Z,91086.03
2022-12-01T23:35:00.608Z,91079.78
2022-12-01T23:37:32.324Z,91079.00
2022-12-01T23:39:58.604Z,91071.09
2022-12-01T23:42:24.866Z,91079.97
2022-12-01T23:44:51.374Z,91076.19
2022-12-01T23:47:24.671Z,91075.38
2022-12-01T23:49:53.445Z,91073.06
2022-12-01T23:52:19.940Z,91067.22
2022-12-01T23:54:46.216Z,91065.00
2022-12-01T23:57:15.475Z,91067.63
2022-12-01T23:59:41.743Z,91067.63
